Time;durP1;ratioP1;P1;durP2;ratioP2;P2;SDS_P1;SDS_P2;PMS_P1;PMS_P2;Temp;Humidity;BMP_temperature;BMP_pressure;BME280_temperature;BME280_humidity;BME280_pressure;Samples;Min_cycle;Max_cycle;Signal;HPM_P1;HPM_P2
2021/03/18 00:00:41;;;;;;;9.55;5.82;;;;;;;6.25;54.73;102103.25;5013841;28;96523;-86
2021/03/18 00:03:08;;;;;;;10.32;6.47;;;;;;;6.07;55.26;102105.81;5007504;28;100401;-87
2021/03/18 00:05:46;;;;;;;12.15;5.90;;;;;;;5.97;55.65;102101.41;5029638;28;96801;-86
2021/03/18 00:08:16;;;;;;;11.88;6.50;;;;;;;6.24;54.50;102095.38;5012719;28;95825;-87
2021/03/18 00:10:43;;;;;;;9.40;6.00;;;;;;;6.11;54.39;102097.06;5018140;28;96817;-88
2021/03/18 00:13:11;;;;;;;8.48;5.93;;;;;;;5.90;55.07;102100.50;5015064;28;100851;-87
2021/03/18 00:15:38;;;;;;;13.02;6.38;;;;;;;5.87;55.40;102103.09;5004596;28;99456;-87
2021/03/18 00:18:10;;;;;;;9.60;6.10;;;;;;;5.77;55.29;102097.75;5018668;28;96404;-87
2021/03/18 00:20:37;;;;;;;14.27;6.15;;;;;;;6.13;54.38;102087.47;5029210;28;96353;-86
2021/03/18 00:23:04;;;;;;;12.82;6.25;;;;;;;5.88;54.53;102085.59;4998636;28;99331;-87
2021/03/18 00:25:35;;;;;;;10.25;5.65;;;;;;;5.91;55.39;102090.84;5007683;28;99820;-87
2021/03/18 00:28:04;;;;;;;13.35;5.95;;;;;;;5.95;55.30;102090.00;5007462;28;96617;-88
2021/03/18 00:30:43;;;;;;;10.70;6.13;;;;;;;5.92;54.50;102085.63;5021255;28;96871;-87
2021/03/18 00:33:13;;;;;;;15.90;6.63;;;;;;;6.32;53.56;102085.78;5009550;28;98263;-86
2021/03/18 00:35:41;;;;;;;15.20;7.03;;;;;;;5.88;54.82;102075.13;5008574;28;98071;-87
2021/03/18 00:38:09;;;;;;;9.63;5.65;;;;;;;6.08;54.46;102083.06;5016138;28;96231;-87
2021/03/18 00:40:43;;;;;;;11.88;6.22;;;;;;;6.02;54.61;102075.19;5014306;28;96515;-87
2021/03/18 00:43:17;;;;;;;11.48;6.47;;;;;;;5.95;54.39;102067.28;4999001;28;98885;-87
2021/03/18 00:45:46;;;;;;;10.43;6.35;;;;;;;6.12;54.12;102067.34;5013641;28;100284;-87
2021/03/18 00:48:14;;;;;;;11.27;5.85;;;;;;;6.41;53.21;102062.19;5010369;28;96687;-87
2021/03/18 00:50:45;;;;;;;12.35;6.45;;;;;;;6.15;54.00;102062.13;5000144;28;96704;-87
2021/03/18 00:53:14;;;;;;;8.52;6.05;;;;;;;5.85;54.84;102062.81;5014740;28;100676;-87
2021/03/18 00:55:42;;;;;;;9.60;6.18;;;;;;;5.99;54.44;102055.91;5007211;28;98529;-87
2021/03/18 00:58:09;;;;;;;12.88;5.93;;;;;;;6.08;54.56;102064.72;5016744;28;97186;-87
2021/03/18 01:03:24;;;;;;;10.60;6.25;;;;;;;6.19;53.98;102060.34;5007423;28;98330;-87
2021/03/18 01:06:00;;;;;;;12.68;6.95;;;;;;;5.94;54.96;102055.03;5001890;28;99266;-88
2021/03/18 01:08:32;;;;;;;9.50;5.88;;;;;;;5.95;54.96;102063.78;5007737;28;96851;-88
2021/03/18 01:11:04;;;;;;;9.00;6.35;;;;;;;5.77;54.96;102056.69;5020065;28;96581;-88
2021/03/18 01:13:32;;;;;;;10.85;6.10;;;;;;;6.07;54.57;102055.94;5007025;28;100385;-87
2021/03/18 01:16:04;;;;;;;12.25;6.35;;;;;;;5.93;54.36;102057.63;5032775;28;99904;-89
2021/03/18 01:18:38;;;;;;;9.80;5.55;;;;;;;5.53;56.26;102051.28;5021135;28;95991;-85
2021/03/18 01:21:24;;;;;;;10.10;6.10;;;;;;;5.70;56.03;102060.13;5022469;28;95923;-84
2021/03/18 01:23:53;;;;;;;12.95;6.35;;;;;;;5.93;55.10;102052.41;5020570;28;97013;-84
2021/03/18 01:26:21;;;;;;;10.32;5.57;;;;;;;5.93;55.28;102053.28;5012604;28;99900;-89
2021/03/18 01:28:48;;;;;;;11.00;5.90;;;;;;;5.85;55.95;102049.69;5029859;28;97481;-88
2021/03/18 01:31:16;;;;;;;10.50;5.85;;;;;;;6.10;55.02;102057.72;5016783;28;96605;-88
2021/03/18 01:33:43;;;;;;;8.00;5.55;;;;;;;6.06;54.99;102056.81;5013122;28;100372;-88
2021/03/18 01:36:13;;;;;;;9.15;5.75;;;;;;;6.40;54.69;102060.44;5009956;28;99368;-87
2021/03/18 01:38:42;;;;;;;9.73;5.53;;;;;;;6.32;55.02;102062.16;5014758;28;97851;-88
2021/03/18 01:41:09;;;;;;;10.35;5.68;;;;;;;6.70;53.46;102052.59;5012601;28;96486;-86
2021/03/18 01:43:36;;;;;;;7.68;5.22;;;;;;;6.39;53.96;102056.03;5014794;28;98777;-86
2021/03/18 01:46:04;;;;;;;9.02;5.20;;;;;;;6.51;53.81;102045.56;5005763;28;97397;-86
2021/03/18 01:51:14;;;;;;;9.30;5.03;;;;;;;6.78;53.02;102047.34;5023539;28;97147;-86
2021/03/18 01:53:42;;;;;;;8.65;5.35;;;;;;;6.72;53.15;102042.97;5017090;28;98552;-87
2021/03/18 01:56:08;;;;;;;8.88;5.05;;;;;;;6.87;53.07;102035.97;5003567;28;99925;-86
2021/03/18 01:58:36;;;;;;;8.95;5.25;;;;;;;6.85;52.88;102032.47;5000349;28;96748;-87
2021/03/18 02:01:06;;;;;;;12.95;5.93;;;;;;;6.67;53.51;102031.59;5023268;28;97021;-86
2021/03/18 02:03:33;;;;;;;8.45;5.10;;;;;;;6.75;53.39;102031.59;5008540;28;98286;-86
2021/03/18 02:05:59;;;;;;;11.05;5.13;;;;;;;6.66;53.67;102031.59;5020607;28;96791;-87
2021/03/18 02:08:26;;;;;;;11.38;5.45;;;;;;;6.49;54.09;102039.47;5007969;28;98151;-87
2021/03/18 02:10:58;;;;;;;8.07;4.85;;;;;;;6.74;53.92;102035.97;4996046;28;96840;-87
2021/03/18 02:13:25;;;;;;;10.77;5.28;;;;;;;6.67;53.88;102034.22;5019296;28;97365;-87
2021/03/18 02:15:58;;;;;;;10.73;6.22;;;;;;;6.54;53.94;102028.94;5020058;28;97835;-86
2021/03/18 02:18:33;;;;;;;10.45;5.25;;;;;;;6.30;54.69;102038.50;5016562;28;96617;-86
2021/03/18 02:21:38;;;;;;;8.70;5.72;;;;;;;6.54;54.26;102034.19;5013214;28;96586;-88
2021/03/18 02:24:33;;;;;;;10.45;5.47;;;;;;;6.69;54.13;102027.22;4982607;28;99463;-89
2021/03/18 02:27:35;;;;;;;8.88;5.18;;;;;;;6.65;54.44;102030.72;5009653;28;98742;-87
2021/03/18 02:30:39;;;;;;;10.35;5.35;;;;;;;6.57;54.55;102029.81;5015870;28;96803;-88
2021/03/18 02:33:29;;;;;;;12.48;5.57;;;;;;;6.62;54.44;102033.34;5003725;28;96560;-87
2021/03/18 02:36:00;;;;;;;8.68;4.88;;;;;;;6.35;54.64;102035.91;4977713;28;98266;-87
2021/03/18 02:38:31;;;;;;;14.07;6.40;;;;;;;6.51;54.26;102037.69;5029834;28;96817;-88
2021/03/18 02:41:01;;;;;;;11.70;6.45;;;;;;;6.44;54.76;102033.28;5011435;28;96449;-86
2021/03/18 02:43:31;;;;;;;13.25;6.40;;;;;;;6.75;53.84;102026.34;5019292;28;96893;-86
2021/03/18 02:46:00;;;;;;;9.77;5.78;;;;;;;6.70;53.20;102028.06;5018659;28;98153;-87
2021/03/18 02:48:30;;;;;;;8.55;5.63;;;;;;;7.05;52.60;102020.19;4999676;28;98858;-88
2021/03/18 02:51:00;;;;;;;10.07;6.10;;;;;;;6.92;52.54;102028.97;5006129;28;96823;-87
2021/03/18 02:53:29;;;;;;;11.98;6.07;;;;;;;6.97;52.68;102025.47;4993036;28;96743;-87
2021/03/18 02:55:57;;;;;;;13.88;6.07;;;;;;;7.07;52.61;102023.72;4997982;28;96975;-88
2021/03/18 02:58:27;;;;;;;11.27;5.68;;;;;;;6.94;52.30;102021.97;5013259;28;96536;-88
2021/03/18 03:00:55;;;;;;;10.65;6.13;;;;;;;6.91;53.33;102019.31;5005525;28;96651;-88
2021/03/18 03:03:24;;;;;;;10.38;5.45;;;;;;;7.01;52.46;102023.72;5013359;28;96791;-88
2021/03/18 03:05:52;;;;;;;8.40;5.07;;;;;;;6.63;53.79;102024.56;4993870;28;100240;-88
2021/03/18 03:08:23;;;;;;;9.35;5.70;;;;;;;6.80;53.44;102017.59;4995835;28;96767;-88
2021/03/18 03:10:53;;;;;;;11.98;5.82;;;;;;;7.28;52.12;102017.56;4998123;28;96569;-88
2021/03/18 03:13:20;;;;;;;10.43;6.35;;;;;;;7.04;52.60;102014.06;4996623;28;96667;-87
2021/03/18 03:15:49;;;;;;;8.05;5.43;;;;;;;7.11;52.40;102014.94;5017958;28;100052;-86
2021/03/18 03:18:17;;;;;;;9.27;5.78;;;;;;;7.19;52.12;102024.56;5011796;28;100761;-87
2021/03/18 03:20:45;;;;;;;11.30;5.80;;;;;;;7.08;52.82;102012.31;5004074;28;96664;-87
2021/03/18 03:23:14;;;;;;;7.78;5.47;;;;;;;7.12;52.59;102012.31;5011745;28;96812;-87
2021/03/18 03:25:42;;;;;;;7.30;4.72;;;;;;;7.24;52.23;102016.66;5026972;28;96879;-88
2021/03/18 03:28:11;;;;;;;10.02;5.28;;;;;;;6.93;52.71;102009.69;5018983;28;99338;-86
2021/03/18 03:30:38;;;;;;;10.25;4.70;;;;;;;6.90;52.67;102020.19;5035032;28;96783;-87
2021/03/18 03:33:06;;;;;;;10.88;4.82;;;;;;;6.69;53.24;102021.97;5014361;28;96914;-87
2021/03/18 03:35:33;;;;;;;10.15;4.95;;;;;;;6.74;53.41;102014.97;5015924;28;98167;-87
2021/03/18 03:38:00;;;;;;;9.00;4.63;;;;;;;6.88;52.96;102011.47;5019556;28;96977;-87
2021/03/18 03:40:29;;;;;;;8.48;4.43;;;;;;;7.06;52.64;102017.56;5014962;28;96637;-87
2021/03/18 03:42:56;;;;;;;6.20;4.68;;;;;;;7.16;52.17;102016.69;5014442;28;96898;-86
2021/03/18 03:45:22;;;;;;;8.18;4.88;;;;;;;6.86;52.69;102003.56;5017316;28;97043;-88
2021/03/18 03:47:49;;;;;;;6.35;4.60;;;;;;;7.12;52.29;102000.91;5030854;28;97015;-87
2021/03/18 03:50:18;;;;;;;9.35;4.55;;;;;;;6.93;52.72;102004.44;5025597;28;96032;-87
2021/03/18 03:52:53;;;;;;;8.43;4.47;;;;;;;6.95;52.88;101998.31;5022629;28;96001;-83
2021/03/18 03:55:34;;;;;;;5.60;3.95;;;;;;;6.62;53.36;101991.31;5022208;28;97089;-86
2021/03/18 03:58:10;;;;;;;9.45;4.70;;;;;;;7.03;52.37;101987.78;5028058;28;97217;-85
2021/03/18 04:00:41;;;;;;;6.93;4.78;;;;;;;6.90;52.93;101996.56;5030041;28;96578;-87
2021/03/18 04:03:10;;;;;;;7.35;4.63;;;;;;;7.03;52.28;102000.91;5011148;28;96463;-87
2021/03/18 04:05:42;;;;;;;10.73;5.10;;;;;;;7.15;52.23;101998.31;5020141;28;98197;-88
2021/03/18 04:08:12;;;;;;;10.05;5.32;;;;;;;7.24;52.26;102006.16;5015373;28;98149;-86
2021/03/18 04:10:41;;;;;;;7.50;4.93;;;;;;;7.06;52.49;102007.06;5032792;28;95936;-87
2021/03/18 04:13:09;;;;;;;16.35;7.55;;;;;;;6.32;55.25;102004.41;5015587;28;95906;-88
2021/03/18 04:15:37;;;;;;;16.88;6.32;;;;;;;6.17;55.36;102005.22;5014373;28;99534;-88
2021/03/18 04:18:07;;;;;;;9.95;5.80;;;;;;;6.46;54.77;101993.91;5000913;28;99887;-88
2021/03/18 04:20:37;;;;;;;12.23;6.00;;;;;;;6.92;53.65;101992.19;5006978;28;96668;-88
2021/03/18 04:23:08;;;;;;;9.45;5.80;;;;;;;6.85;53.71;101995.69;4998147;28;96702;-88
2021/03/18 04:25:36;;;;;;;11.60;6.60;;;;;;;6.77;53.74;101987.78;5002834;28;98941;-88
2021/03/18 04:28:04;;;;;;;11.23;6.70;;;;;;;6.78;53.45;101985.19;5008456;28;100976;-88
2021/03/18 04:30:33;;;;;;;8.90;6.30;;;;;;;7.10;52.76;101992.16;5006913;28;96764;-87
2021/03/18 04:33:01;;;;;;;12.52;7.18;;;;;;;6.90;53.29;101988.66;5006898;28;96711;-87
2021/03/18 04:35:29;;;;;;;12.80;7.38;;;;;;;7.17;52.67;101988.63;4992451;28;100064;-89
2021/03/18 04:37:58;;;;;;;13.52;7.45;;;;;;;7.06;52.87;101995.66;4990050;28;98688;-88
2021/03/18 04:40:25;;;;;;;13.68;7.15;;;;;;;7.27;52.18;101979.00;5000986;28;97089;-87
2021/03/18 04:42:54;;;;;;;14.38;8.45;;;;;;;7.04;52.93;101986.91;4985127;28;96721;-87
2021/03/18 04:45:22;;;;;;;14.15;9.18;;;;;;;6.96;52.86;101979.03;4996136;28;99809;-87
2021/03/18 04:48:10;;;;;;;16.02;7.68;;;;;;;6.93;53.15;101980.78;5018303;28;99415;-87
2021/03/18 04:50:37;;;;;;;17.65;7.72;;;;;;;6.88;53.25;101974.69;5010354;28;96597;-87
2021/03/18 04:53:10;;;;;;;16.02;8.43;;;;;;;6.82;53.97;101979.94;5008321;28;96638;-87
2021/03/18 04:55:36;;;;;;;14.95;8.23;;;;;;;6.84;53.83;101984.28;5000074;28;99025;-87
2021/03/18 04:58:05;;;;;;;12.52;8.02;;;;;;;6.79;54.12;101975.56;5006259;28;100752;-87
2021/03/18 05:00:33;;;;;;;13.95;7.50;;;;;;;7.15;53.40;101985.16;5008328;28;96792;-87
2021/03/18 05:03:02;;;;;;;13.98;7.68;;;;;;;6.89;54.51;101977.31;5013333;28;96849;-87
2021/03/18 05:05:31;;;;;;;16.38;9.05;;;;;;;6.71;54.58;101974.66;5007334;28;100391;-88
2021/03/18 05:08:00;;;;;;;13.98;7.90;;;;;;;6.76;54.83;101975.56;5013219;28;97824;-88
2021/03/18 05:10:30;;;;;;;14.57;8.65;;;;;;;6.60;55.37;101974.69;5022003;28;95991;-90
2021/03/18 05:13:03;;;;;;;15.00;7.80;;;;;;;6.87;54.69;101978.19;5018901;28;96543;-88
2021/03/18 05:15:29;;;;;;;13.95;7.97;;;;;;;6.57;55.48;101969.41;5002176;28;97812;-87
2021/03/18 05:17:56;;;;;;;13.32;8.27;;;;;;;6.85;54.40;101969.41;5011470;28;96699;-87
2021/03/18 05:20:24;;;;;;;15.90;8.18;;;;;;;6.83;54.51;101968.56;5006384;28;96669;-87
2021/03/18 05:22:52;;;;;;;45.72;9.95;;;;;;;7.04;54.21;101973.75;5015422;28;96625;-88
2021/03/18 05:25:21;;;;;;;16.95;8.52;;;;;;;7.10;53.99;101971.13;5012997;28;99211;-88
2021/03/18 05:27:48;;;;;;;16.90;8.70;;;;;;;7.02;53.72;101972.91;5004373;28;98773;-87
2021/03/18 05:30:16;;;;;;;16.48;9.05;;;;;;;7.31;53.02;101965.81;5019978;28;95925;-89
2021/03/18 05:32:43;;;;;;;17.90;9.75;;;;;;;7.30;52.85;101958.81;5015036;28;96879;-88
2021/03/18 05:38:02;;;;;;;16.83;8.82;;;;;;;7.15;53.21;101958.88;4999452;28;99560;-88
2021/03/18 05:40:28;;;;;;;15.10;9.18;;;;;;;7.03;53.39;101950.97;4992828;28;96848;-88
2021/03/18 05:42:59;;;;;;;17.52;9.60;;;;;;;7.31;53.14;101952.69;5005964;28;96789;-89
2021/03/18 05:45:26;;;;;;;18.17;10.15;;;;;;;7.27;52.84;101950.06;5001513;28;98037;-87
2021/03/18 05:48:01;;;;;;;15.70;10.10;;;;;;;7.39;52.96;101955.28;5005510;28;99805;-87
2021/03/18 05:50:27;;;;;;;23.55;11.00;;;;;;;7.15;53.04;101954.47;5014892;28;96687;-85
2021/03/18 05:55:41;;;;;;;20.35;9.32;;;;;;;7.42;52.75;101950.88;5014460;28;98639;-88
2021/03/18 05:58:09;;;;;;;20.20;9.73;;;;;;;7.71;51.88;101953.41;5009488;28;99202;-88
2021/03/18 06:00:36;;;;;;;19.00;9.75;;;;;;;7.77;51.67;101952.50;5006964;28;96680;-88
2021/03/18 06:03:03;;;;;;;19.45;10.93;;;;;;;7.70;51.96;101950.78;5011764;28;96852;-87
2021/03/18 06:05:30;;;;;;;18.35;9.88;;;;;;;7.59;51.76;101951.72;5008135;28;96955;-87
2021/03/18 06:07:56;;;;;;;15.68;9.73;;;;;;;7.57;52.38;101955.22;5009365;28;99437;-87
2021/03/18 06:10:26;;;;;;;15.50;9.77;;;;;;;7.56;52.10;101951.72;5017886;28;96484;-86
2021/03/18 06:12:54;;;;;;;19.70;10.88;;;;;;;7.82;51.47;101953.34;5014753;28;95953;-87
2021/03/18 06:15:22;;;;;;;18.17;10.07;;;;;;;7.67;51.89;101946.41;5028358;28;99320;-86
2021/03/18 06:20:32;;;;;;;17.65;10.07;;;;;;;7.94;51.36;101940.13;5011063;28;96587;-88
2021/03/18 06:23:00;;;;;;;21.10;9.48;;;;;;;7.99;51.43;101938.34;5005186;28;96594;-87
2021/03/18 06:25:30;;;;;;;20.00;9.68;;;;;;;8.18;50.81;101933.84;5012941;28;97078;-88
2021/03/18 06:28:19;;;;;;;17.30;8.98;;;;;;;7.87;51.37;101938.44;5023365;28;99445;-87
2021/03/18 06:30:57;;;;;;;16.95;9.75;;;;;;;8.01;51.32;101947.09;5004087;28;96382;-88
2021/03/18 06:33:29;;;;;;;15.80;8.93;;;;;;;8.08;51.09;101938.28;5000265;28;98719;-87
2021/03/18 06:35:56;;;;;;;18.02;9.57;;;;;;;8.17;51.07;101939.97;4992656;28;98164;-86
2021/03/18 06:38:34;;;;;;;14.48;8.90;;;;;;;7.79;51.79;101932.31;5003411;28;100451;-88
2021/03/18 06:41:00;;;;;;;18.80;9.85;;;;;;;7.83;52.06;101937.56;5005590;28;96821;-89
2021/03/18 06:43:39;;;;;;;15.27;8.73;;;;;;;7.96;51.54;101946.25;5007784;28;96757;-88
2021/03/18 06:46:22;;;;;;;16.98;9.13;;;;;;;7.95;51.63;101949.75;5006397;28;98979;-86
2021/03/18 06:48:56;;;;;;;28.65;13.60;;;;;;;8.11;51.50;101946.16;5001925;28;97811;-87
2021/03/18 06:51:25;;;;;;;18.88;9.73;;;;;;;8.15;51.12;101937.34;5008720;28;96786;-89
2021/03/18 06:53:51;;;;;;;12.65;7.80;;;;;;;8.16;51.26;101944.38;5005140;28;99145;-85
2021/03/18 06:56:27;;;;;;;17.25;9.13;;;;;;;8.08;51.39;101946.16;5016023;28;97796;-83
2021/03/18 06:58:55;;;;;;;19.13;10.25;;;;;;;8.20;51.62;101937.34;5013911;28;98380;-85
2021/03/18 07:01:27;;;;;;;14.93;9.55;;;;;;;8.32;51.11;101935.53;5008281;28;96955;-86
2021/03/18 07:04:01;;;;;;;12.50;8.15;;;;;;;8.46;50.87;101932.78;5015021;28;96636;-86
2021/03/18 07:06:30;;;;;;;15.88;7.82;;;;;;;8.59;50.22;101930.94;5009978;28;98291;-85
2021/03/18 07:09:10;;;;;;;12.63;7.38;;;;;;;8.81;49.90;101929.81;5015605;28;100129;-87
2021/03/18 07:11:41;;;;;;;13.68;7.75;;;;;;;8.86;49.78;101933.28;5016932;28;96543;-87
2021/03/18 07:14:11;;;;;;;10.25;6.90;;;;;;;9.03;49.09;101930.50;5016317;28;96723;-87
2021/03/18 07:16:44;;;;;;;12.30;7.05;;;;;;;8.85;49.01;101933.31;5002659;28;98873;-87
2021/03/18 07:22:05;;;;;;;12.20;7.50;;;;;;;8.94;49.01;101933.22;5002806;28;96701;-88
2021/03/18 07:24:36;;;;;;;11.55;7.07;;;;;;;8.82;49.36;101928.94;5007855;28;96585;-89
2021/03/18 07:27:11;;;;;;;15.32;8.18;;;;;;;9.13;48.56;101929.50;5006776;28;100049;-88
2021/03/18 07:29:43;;;;;;;14.90;8.43;;;;;;;9.45;47.69;101926.53;5003217;28;97064;-88
2021/03/18 07:32:12;;;;;;;11.25;7.10;;;;;;;9.47;48.06;101922.94;5009469;28;96893;-86
2021/03/18 07:34:39;;;;;;;12.35;8.45;;;;;;;9.51;47.25;101929.06;5002381;28;97093;-86
2021/03/18 07:37:05;;;;;;;16.63;7.85;;;;;;;9.06;48.54;101920.78;4990702;28;98182;-88
2021/03/18 07:39:33;;;;;;;13.70;9.10;;;;;;;9.64;47.20;101920.13;5004167;28;99244;-87
2021/03/18 07:42:01;;;;;;;13.13;7.95;;;;;;;9.48;47.34;101918.53;5006057;28;96699;-86
2021/03/18 07:44:29;;;;;;;11.98;8.32;;;;;;;9.89;46.66;101910.09;5004214;28;96845;-87
2021/03/18 07:46:58;;;;;;;13.68;8.70;;;;;;;10.36;46.23;101912.03;4997311;28;100655;-89
2021/03/18 07:49:28;;;;;;;16.67;9.40;;;;;;;10.23;45.39;101910.50;5001635;28;97754;-87
2021/03/18 07:51:58;;;;;;;13.57;8.95;;;;;;;10.04;45.76;101901.06;4998562;28;97857;-88
2021/03/18 07:54:26;;;;;;;13.73;8.25;;;;;;;10.31;45.42;101913.88;4996629;28;96889;-87
2021/03/18 07:56:54;;;;;;;12.98;8.38;;;;;;;10.26;45.69;101913.06;4994152;28;98852;-89
2021/03/18 07:59:22;;;;;;;14.13;9.02;;;;;;;9.85;46.22;101906.59;5003451;28;100389;-86
2021/03/18 08:01:49;;;;;;;14.98;8.43;;;;;;;9.80;47.30;101908.44;5005568;28;98715;-88
2021/03/18 08:04:39;;;;;;;12.80;7.97;;;;;;;9.73;47.48;101901.50;5009716;28;97797;-87
2021/03/18 08:07:15;;;;;;;13.57;8.23;;;;;;;9.79;47.22;101897.91;5001649;28;99707;-87
2021/03/18 08:09:52;;;;;;;15.57;8.15;;;;;;;10.35;45.79;101897.09;5001226;28;97165;-87
2021/03/18 08:12:51;;;;;;;12.43;8.40;;;;;;;10.45;45.36;101892.50;5008715;28;97047;-86
2021/03/18 08:18:44;;;;;;;21.00;10.23;;;;;;;10.72;44.82;101898.19;5002778;28;98761;-86
2021/03/18 08:21:13;;;;;;;19.83;10.43;;;;;;;10.97;44.24;101892.44;5002540;28;99339;-88
2021/03/18 08:23:42;;;;;;;17.42;10.38;;;;;;;10.35;45.05;101883.88;4999870;28;97034;-87
2021/03/18 08:26:19;;;;;;;18.67;12.10;;;;;;;10.44;45.34;101888.97;5002385;28;97001;-87
2021/03/18 08:28:48;;;;;;;18.58;10.70;;;;;;;11.40;43.57;101889.84;5002690;28;97552;-88
2021/03/18 08:31:17;;;;;;;19.02;11.30;;;;;;;11.91;42.09;101882.56;4999252;28;98189;-87
2021/03/18 08:33:47;;;;;;;20.75;12.27;;;;;;;11.88;41.90;101887.94;5002246;28;97647;-83
2021/03/18 08:36:26;;;;;;;21.77;13.48;;;;;;;11.15;43.87;101892.13;4999358;28;98576;-87
2021/03/18 08:41:40;;;;;;;19.73;11.63;;;;;;;11.78;42.53;101881.97;4999985;28;99373;-87
2021/03/18 08:44:29;;;;;;;21.50;12.00;;;;;;;11.64;43.33;101881.38;5007294;28;97216;-87
2021/03/18 08:46:57;;;;;;;19.98;13.05;;;;;;;11.83;42.52;101871.25;5011919;28;96853;-87
2021/03/18 08:49:30;;;;;;;22.00;12.48;;;;;;;12.51;40.84;101868.72;5007950;28;100434;-87
2021/03/18 08:52:00;;;;;;;18.63;11.63;;;;;;;12.70;39.88;101877.94;5019264;28;97800;-82
2021/03/18 08:54:59;;;;;;;16.67;11.57;;;;;;;12.75;40.03;101865.44;5016841;28;96399;-86
2021/03/18 08:57:31;;;;;;;18.75;11.15;;;;;;;12.76;40.18;101870.69;5006043;28;96701;-84
2021/03/18 09:08:33;;;;;;;13.98;9.98;;;;;;;12.67;39.47;101870.06;5001734;28;97184;-85
2021/03/18 09:11:06;;;;;;;15.48;10.10;;;;;;;12.79;38.90;101872.41;4999097;28;98945;-86
2021/03/18 09:13:36;;;;;;;20.13;11.05;;;;;;;12.45;40.10;101871.53;5007181;28;99170;-85
2021/03/18 09:16:08;;;;;;;20.17;12.25;;;;;;;12.41;40.97;101877.81;5011353;28;96804;-87
2021/03/18 09:18:42;;;;;;;18.17;10.00;;;;;;;12.36;41.74;101870.84;5007211;28;97615;-87
2021/03/18 09:21:12;;;;;;;21.95;11.63;;;;;;;12.15;42.25;101874.03;5006408;28;96804;-85
2021/03/18 09:23:42;;;;;;;19.00;11.68;;;;;;;12.25;42.42;101869.38;5023920;28;99208;-88
2021/03/18 09:26:11;;;;;;;17.08;8.73;;;;;;;11.87;42.21;101873.81;5012802;28;98129;-82
2021/03/18 09:28:39;;;;;;;15.52;8.27;;;;;;;11.88;42.19;101872.06;5014307;28;96064;-86
2021/03/18 09:31:07;;;;;;;11.85;7.82;;;;;;;11.91;42.10;101887.84;5018316;28;96980;-86
2021/03/18 09:33:37;;;;;;;20.67;8.13;;;;;;;11.36;43.19;101881.06;5010833;28;100204;-83
2021/03/18 09:36:23;;;;;;;15.25;8.43;;;;;;;11.47;43.63;101881.75;5012219;28;96939;-84
2021/03/18 09:39:17;;;;;;;13.32;8.63;;;;;;;11.23;44.01;101881.34;5017416;28;96712;-85
2021/03/18 09:41:47;;;;;;;12.85;8.07;;;;;;;11.53;43.46;101886.91;5019246;28;98951;-85
2021/03/18 09:44:16;;;;;;;12.32;8.30;;;;;;;11.86;42.83;101880.03;5010169;28;99534;-87
2021/03/18 09:46:49;;;;;;;14.50;9.63;;;;;;;11.62;43.75;101882.31;5002360;28;96968;-87
2021/03/18 09:52:00;;;;;;;14.00;8.45;;;;;;;11.52;43.96;101879.88;5004604;28;96839;-87
2021/03/18 09:54:32;;;;;;;13.18;7.60;;;;;;;11.76;43.59;101882.91;5004212;28;99327;-87
2021/03/18 09:57:04;;;;;;;12.45;7.43;;;;;;;11.22;44.39;101880.50;5003758;28;96868;-87
2021/03/18 09:59:31;;;;;;;13.63;8.30;;;;;;;11.12;44.56;101871.00;5000238;28;96882;-86
2021/03/18 10:04:41;;;;;;;11.93;7.72;;;;;;;10.86;45.51;101860.06;5005712;28;98852;-88
2021/03/18 10:07:17;;;;;;;13.55;8.48;;;;;;;11.17;44.87;101877.06;5013289;28;96818;-87
2021/03/18 10:10:02;;;;;;;;;;;;;;;10.96;45.13;101873.06;5019261;28;96226;-88
2021/03/18 10:15:25;;;;;;;12.07;7.95;;;;;;;10.63;46.10;101858.69;5014779;28;100636;-86
2021/03/18 10:17:56;;;;;;;17.17;8.82;;;;;;;11.57;44.93;101864.75;5009435;28;96581;-86
2021/03/18 10:20:28;;;;;;;21.13;8.57;;;;;;;12.44;43.16;101860.06;5014167;28;96752;-86
2021/03/18 10:25:47;;;;;;;13.85;7.80;;;;;;;12.61;41.93;101846.34;5003843;28;99706;-88
2021/03/18 10:28:17;;;;;;;12.48;8.65;;;;;;;13.10;41.41;101837.94;5015300;28;96855;-88
2021/03/18 10:33:28;;;;;;;20.55;9.25;;;;;;;12.53;42.72;101840.41;5016022;28;99259;-88
2021/03/18 10:36:08;;;;;;;12.68;6.68;;;;;;;12.28;42.04;101834.84;5016304;28;96530;-88
2021/03/18 10:38:37;;;;;;;12.30;8.43;;;;;;;11.93;42.86;101830.44;5010729;28;96726;-88
2021/03/18 10:41:06;;;;;;;9.43;6.25;;;;;;;11.89;41.59;101832.25;5014519;28;96665;-86
2021/03/18 10:43:40;;;;;;;11.75;7.70;;;;;;;12.21;40.95;101814.69;5019787;28;99522;-85
2021/03/18 10:46:09;;;;;;;13.57;8.32;;;;;;;11.10;42.35;101822.53;5008110;28;98148;-87
2021/03/18 10:51:20;;;;;;;15.25;7.43;;;;;;;10.37;43.69;101823.97;5008648;28;97050;-88
2021/03/18 10:53:51;;;;;;;11.85;7.20;;;;;;;11.11;42.11;101819.88;5007326;28;98827;-88
2021/03/18 10:56:25;;;;;;;13.57;7.10;;;;;;;11.52;41.48;101812.81;5010835;28;96921;-87
2021/03/18 10:59:04;;;;;;;12.90;7.38;;;;;;;11.74;41.16;101807.94;5017391;28;96028;-86
2021/03/18 11:01:41;;;;;;;11.38;7.22;;;;;;;11.72;41.30;101807.06;5011004;28;95998;-87
2021/03/18 11:04:08;;;;;;;12.50;7.40;;;;;;;11.46;42.23;101810.31;5012667;28;96720;-88
2021/03/18 11:06:46;;;;;;;13.55;8.18;;;;;;;11.97;41.24;101802.94;5010361;28;97408;-87
2021/03/18 11:09:13;;;;;;;12.23;8.13;;;;;;;12.29;40.53;101792.41;5009506;28;96968;-85
2021/03/18 11:11:54;;;;;;;12.20;7.63;;;;;;;11.82;41.40;101792.72;5017625;28;96686;-87
2021/03/18 11:17:06;;;;;;;10.13;6.95;;;;;;;12.18;41.28;101783.88;5015982;28;99842;-87
2021/03/18 11:19:34;;;;;;;16.73;8.10;;;;;;;11.89;41.21;101779.28;5002398;28;98068;-87
2021/03/18 11:22:05;;;;;;;10.15;6.25;;;;;;;12.14;40.39;101779.53;5004600;28;96870;-86
2021/03/18 11:24:34;;;;;;;11.27;6.85;;;;;;;11.97;41.35;101777.34;5002292;28;98481;-86
2021/03/18 11:27:04;;;;;;;12.02;6.82;;;;;;;12.51;40.43;101776.81;4997936;28;101082;-88
2021/03/18 11:29:37;;;;;;;11.30;7.03;;;;;;;13.20;39.19;101762.47;5005778;28;96767;-86
2021/03/18 11:32:07;;;;;;;13.65;7.75;;;;;;;12.50;40.11;101768.91;4998671;28;96796;-88
2021/03/18 11:34:35;;;;;;;10.02;5.53;;;;;;;11.63;40.12;101755.19;5004664;28;100244;-86
2021/03/18 11:37:09;;;;;;;9.25;5.25;;;;;;;12.07;39.99;101755.91;4996454;28;98190;-87
2021/03/18 11:39:35;;;;;;;10.23;5.10;;;;;;;12.59;38.59;101750.09;5004737;28;96651;-88
2021/03/18 11:42:10;;;;;;;7.88;5.07;;;;;;;12.82;38.31;101739.69;5006054;28;96992;-87
2021/03/18 11:44:40;;;;;;;7.03;4.97;;;;;;;12.83;37.98;101741.44;5007188;28;97049;-87
2021/03/18 11:47:14;;;;;;;8.95;5.57;;;;;;;13.09;38.51;101733.56;5006289;28;98964;-85
2021/03/18 11:49:42;;;;;;;6.25;5.28;;;;;;;13.41;37.29;101723.78;5011820;28;96532;-86
2021/03/18 11:52:09;;;;;;;14.05;5.78;;;;;;;12.75;38.69;101732.81;5001322;28;96694;-84
2021/03/18 11:54:37;;;;;;;7.38;4.85;;;;;;;12.46;38.70;101725.72;5017946;28;99788;-85
2021/03/18 11:57:05;;;;;;;8.32;5.05;;;;;;;12.34;38.75;101718.94;5020629;28;98038;-84
2021/03/18 11:59:39;;;;;;;10.95;4.82;;;;;;;13.28;36.91;101714.44;5014809;28;96840;-84
2021/03/18 12:02:07;;;;;;;8.13;4.65;;;;;;;12.68;37.61;101702.09;5013147;28;95986;-86
2021/03/18 12:04:33;;;;;;;10.85;4.75;;;;;;;12.65;37.66;101710.16;5010304;28;100166;-87
2021/03/18 12:06:59;;;;;;;;;;;;;;;13.02;36.92;101702.81;5016025;28;99053;-87
2021/03/18 12:09:26;;;;;;;6.93;4.10;;;;;;;12.59;37.56;101705.03;5000938;28;98587;-86
2021/03/18 12:12:03;;;;;;;7.60;4.47;;;;;;;12.74;37.42;101689.50;4998510;28;96908;-87
2021/03/18 12:14:29;;;;;;;8.65;4.70;;;;;;;13.13;36.68;101692.78;4990447;28;97449;-88
2021/03/18 12:16:55;;;;;;;7.82;4.65;;;;;;;13.14;37.03;101686.56;5002054;28;98264;-88
2021/03/18 12:19:22;;;;;;;9.93;4.53;;;;;;;13.26;36.20;101685.28;4992436;28;96885;-89
2021/03/18 12:21:48;;;;;;;10.00;4.95;;;;;;;13.28;36.33;101666.69;4994710;28;96922;-88
2021/03/18 12:24:14;;;;;;;;;;;;;;;12.96;36.89;101663.22;5000965;28;100876;-88
2021/03/18 12:26:41;;;;;;;12.20;5.18;;;;;;;12.95;37.07;101658.81;5001700;28;99078;-88
2021/03/18 12:29:11;;;;;;;15.90;4.80;;;;;;;13.09;37.26;101650.44;5002272;28;96773;-87
2021/03/18 12:31:37;;;;;;;4.90;3.72;;;;;;;13.36;36.60;101648.72;5009062;28;97383;-88